Time;durP1;ratioP1;P1;durP2;ratioP2;P2;SDS_P1;SDS_P2;PMS_P1;PMS_P2;Temp;Humidity;BMP_temperature;BMP_pressure;BME280_temperature;BME280_humidity;BME280_pressure;Samples;Min_cycle;Max_cycle;Signal;HPM_P1;HPM_P2
2021/12/27 00:02:20;;;;;;;17.85;9.35;;;;;;;7.71;100.00;97775.28;5026665;28;20021;-65
2021/12/27 00:04:45;;;;;;;15.57;8.88;;;;;;;7.68;100.00;97770.09;5026693;28;20033;-65
2021/12/27 00:07:11;;;;;;;17.38;10.27;;;;;;;7.69;100.00;97770.97;5017572;28;20026;-64
2021/12/27 00:09:39;;;;;;;16.48;9.18;;;;;;;7.72;100.00;97771.75;5007171;28;20049;-64
2021/12/27 00:12:05;;;;;;;17.17;9.93;;;;;;;7.74;100.00;97769.97;5007044;28;20022;-64
2021/12/27 00:14:30;;;;;;;15.90;9.70;;;;;;;7.82;100.00;97778.50;5006794;28;20277;-64
2021/12/27 00:16:56;;;;;;;20.27;9.15;;;;;;;7.87;100.00;97776.66;5023116;28;20128;-65
2021/12/27 00:19:21;;;;;;;17.00;9.73;;;;;;;7.86;100.00;97774.94;5025742;28;20325;-65
2021/12/27 00:21:47;;;;;;;15.25;8.45;;;;;;;7.94;100.00;97765.13;5026272;28;20025;-65
2021/12/27 00:24:12;;;;;;;18.13;10.00;;;;;;;7.93;100.00;97768.66;5026054;28;20065;-65
2021/12/27 00:26:38;;;;;;;20.58;9.73;;;;;;;7.91;100.00;97752.09;5026296;28;20026;-65
2021/12/27 00:29:03;;;;;;;17.67;9.82;;;;;;;7.89;100.00;97764.41;5026441;28;20026;-65
2021/12/27 00:31:28;;;;;;;18.17;9.40;;;;;;;7.89;100.00;97751.31;5026035;28;20072;-65
2021/12/27 00:33:54;;;;;;;18.38;9.00;;;;;;;7.89;100.00;97755.66;5026084;28;20033;-65
2021/12/27 00:36:20;;;;;;;16.50;9.23;;;;;;;7.89;100.00;97748.69;5025991;28;20030;-65
2021/12/27 00:38:45;;;;;;;18.58;9.82;;;;;;;7.88;100.00;97744.31;5026063;28;20041;-65
2021/12/27 00:41:10;;;;;;;19.88;9.35;;;;;;;7.94;100.00;97746.81;5025909;28;20060;-65
2021/12/27 00:43:36;;;;;;;21.75;11.13;;;;;;;7.93;100.00;97742.47;5017706;28;20033;-65
2021/12/27 00:46:01;;;;;;;21.27;9.63;;;;;;;7.95;100.00;97738.06;5022803;28;20026;-65
2021/12/27 00:48:27;;;;;;;17.13;9.77;;;;;;;7.97;100.00;97738.88;5024444;28;20026;-65
2021/12/27 00:50:52;;;;;;;17.48;9.93;;;;;;;7.96;100.00;97745.03;5026054;28;20033;-65
2021/12/27 00:53:18;;;;;;;17.63;9.40;;;;;;;8.01;100.00;97703.84;5025659;28;20136;-65
2021/12/27 00:55:43;;;;;;;17.70;10.02;;;;;;;8.00;100.00;97733.56;5025392;28;20069;-64
2021/12/27 00:58:10;;;;;;;15.50;8.65;;;;;;;8.00;100.00;97738.81;5023995;28;20048;-64
2021/12/27 01:00:35;;;;;;;17.35;9.93;;;;;;;7.99;100.00;97724.00;5025572;28;20054;-64
2021/12/27 01:03:01;;;;;;;18.63;10.10;;;;;;;8.01;100.00;97727.41;5025295;28;20029;-64
2021/12/27 01:05:27;;;;;;;15.95;8.48;;;;;;;8.00;100.00;97728.31;5025466;28;20048;-64
2021/12/27 01:07:53;;;;;;;16.08;9.02;;;;;;;8.00;100.00;97725.69;5025389;28;20391;-64
2021/12/27 01:13:01;;;;;;;17.52;9.23;;;;;;;7.97;100.00;97712.66;5025125;28;20018;-64
2021/12/27 01:15:45;;;;;;;;;;;;;;;7.99;100.00;97720.50;5025725;28;20041;-64
2021/12/27 01:18:11;;;;;;;16.27;8.38;;;;;;;7.98;100.00;97719.63;5025307;28;19910;-64
2021/12/27 01:20:37;;;;;;;21.20;8.45;;;;;;;7.95;100.00;97721.47;5025218;28;20344;-64
2021/12/27 01:23:03;;;;;;;20.70;9.98;;;;;;;8.00;100.00;97715.22;5025444;28;20014;-65
2021/12/27 01:25:29;;;;;;;26.45;9.15;;;;;;;7.98;100.00;97717.00;5024934;28;20382;-65
2021/12/27 01:27:54;;;;;;;16.85;9.65;;;;;;;7.98;100.00;97701.28;5024688;28;20088;-65
2021/12/27 01:30:22;;;;;;;18.90;9.55;;;;;;;7.97;100.00;97702.19;5024960;28;20073;-65
2021/12/27 01:32:52;;;;;;;17.25;9.55;;;;;;;8.04;100.00;97709.00;5024901;28;20026;-65
2021/12/27 01:35:20;;;;;;;18.48;8.60;;;;;;;8.05;100.00;97702.00;5024934;28;20030;-65
2021/12/27 01:37:46;;;;;;;20.42;9.20;;;;;;;8.11;100.00;97702.75;5019013;28;20022;-65
2021/12/27 01:40:15;;;;;;;20.30;9.05;;;;;;;8.21;100.00;97699.00;5005241;28;20044;-65
2021/12/27 01:43:01;;;;;;;22.35;9.27;;;;;;;8.13;100.00;97693.06;5024430;28;20101;-64
2021/12/27 01:45:27;;;;;;;21.58;10.30;;;;;;;8.12;100.00;97701.84;5005096;28;20108;-64
2021/12/27 01:47:53;;;;;;;16.95;9.82;;;;;;;8.18;100.00;97688.59;5011095;28;20057;-64
2021/12/27 01:50:18;;;;;;;16.67;9.10;;;;;;;8.13;100.00;97679.13;5024739;28;20026;-64
2021/12/27 01:52:44;;;;;;;20.40;9.65;;;;;;;8.05;100.00;97663.56;5024611;28;20040;-64
2021/12/27 01:55:10;;;;;;;15.60;9.30;;;;;;;8.00;100.00;97668.06;5024416;28;20320;-64
2021/12/27 01:57:36;;;;;;;21.45;10.50;;;;;;;7.94;100.00;97660.34;5024580;28;20037;-64
2021/12/27 02:00:05;;;;;;;28.15;10.57;;;;;;;7.90;100.00;97666.56;5024785;28;20313;-64
2021/12/27 02:02:31;;;;;;;21.63;10.75;;;;;;;7.83;100.00;97665.00;5024497;28;20022;-65
2021/12/27 02:04:59;;;;;;;21.83;9.95;;;;;;;7.86;100.00;97664.06;5024463;28;20133;-65
2021/12/27 02:07:24;;;;;;;17.90;9.98;;;;;;;7.83;100.00;97678.09;5024444;28;20053;-65
2021/12/27 02:10:01;;;;;;;19.85;9.45;;;;;;;7.83;100.00;97670.25;5024148;28;20405;-65
2021/12/27 02:12:27;;;;;;;14.07;8.43;;;;;;;7.85;100.00;97668.41;5024594;28;20101;-65
2021/12/27 02:14:53;;;;;;;16.00;9.57;;;;;;;7.79;100.00;97658.09;5023744;28;20075;-65
2021/12/27 02:17:19;;;;;;;16.77;8.85;;;;;;;7.73;100.00;97663.50;5024299;28;20092;-65
2021/12/27 02:19:49;;;;;;;18.10;9.52;;;;;;;7.72;100.00;97681.88;5024260;28;20366;-65
2021/12/27 02:22:15;;;;;;;41.08;16.55;;;;;;;7.77;100.00;97691.31;5024213;28;20022;-65
2021/12/27 02:24:40;;;;;;;62.72;19.50;;;;;;;7.75;100.00;97687.88;5011088;28;20114;-65
2021/12/27 02:27:06;;;;;;;44.72;18.08;;;;;;;7.75;100.00;97698.34;5005509;28;20306;-65
2021/12/27 02:29:32;;;;;;;25.02;10.77;;;;;;;7.79;100.00;97723.56;5024198;28;20217;-65
2021/12/27 02:31:57;;;;;;;15.15;8.73;;;;;;;7.86;100.00;97705.97;5024094;28;20026;-65
2021/12/27 02:34:23;;;;;;;17.77;8.80;;;;;;;7.85;100.00;97705.09;5024090;28;20049;-65
2021/12/27 02:36:49;;;;;;;17.15;7.85;;;;;;;7.84;100.00;97703.38;5024026;28;20313;-65
2021/12/27 02:39:15;;;;;;;18.38;8.85;;;;;;;7.82;100.00;97699.94;5023800;28;20018;-65
2021/12/27 02:41:40;;;;;;;19.85;9.65;;;;;;;7.83;100.00;97701.66;5008043;28;20022;-65
2021/12/27 02:44:06;;;;;;;22.52;10.80;;;;;;;7.85;100.00;97693.78;5016335;28;20243;-65
2021/12/27 02:46:31;;;;;;;22.75;9.77;;;;;;;7.85;100.00;97694.63;5023413;28;20099;-65
2021/12/27 02:48:57;;;;;;;17.13;9.32;;;;;;;7.86;100.00;97685.88;5024028;28;20045;-65
2021/12/27 02:51:22;;;;;;;17.95;8.20;;;;;;;7.89;100.00;97701.53;5023872;28;20216;-65
2021/12/27 02:53:49;;;;;;;17.60;8.18;;;;;;;7.96;100.00;97692.63;5023939;28;20080;-65
2021/12/27 02:56:15;;;;;;;13.88;7.85;;;;;;;8.01;100.00;97695.97;5023954;28;20244;-65
2021/12/27 02:58:40;;;;;;;16.65;7.63;;;;;;;8.08;100.00;97691.47;5023864;28;20026;-65
2021/12/27 03:01:10;;;;;;;13.57;7.18;;;;;;;8.04;100.00;97687.19;5023904;28;20045;-65
2021/12/27 03:03:36;;;;;;;13.40;6.90;;;;;;;8.09;100.00;97694.03;5023584;28;20049;-65
2021/12/27 03:06:03;;;;;;;12.65;6.47;;;;;;;8.09;100.00;97683.56;5024119;28;20236;-65
2021/12/27 03:08:29;;;;;;;12.52;6.35;;;;;;;8.10;100.00;97690.50;5023834;28;20028;-65
2021/12/27 03:10:57;;;;;;;16.17;6.50;;;;;;;8.12;100.00;97682.63;5023779;28;20017;-65
2021/12/27 03:13:29;;;;;;;12.18;6.10;;;;;;;8.11;100.00;97660.81;5023698;28;20018;-64
2021/12/27 03:16:00;;;;;;;13.10;5.90;;;;;;;8.08;100.00;97676.59;5023793;28;20260;-64
2021/12/27 03:18:27;;;;;;;13.80;6.60;;;;;;;8.25;100.00;97679.69;5011846;28;20074;-64
2021/12/27 03:20:53;;;;;;;16.83;7.32;;;;;;;8.25;100.00;97700.66;5004032;28;20030;-64
2021/12/27 03:23:19;;;;;;;16.42;6.18;;;;;;;8.18;100.00;97683.34;5002870;28;20027;-64
2021/12/27 03:25:45;;;;;;;15.65;6.90;;;;;;;8.21;100.00;97685.88;5004610;28;20396;-64
2021/12/27 03:28:10;;;;;;;12.95;6.15;;;;;;;8.27;100.00;97683.16;5018266;28;20032;-64
2021/12/27 03:30:37;;;;;;;13.55;6.18;;;;;;;8.32;100.00;97691.72;5027300;28;20030;-64
2021/12/27 03:33:04;;;;;;;12.73;6.07;;;;;;;8.27;100.00;97667.41;5027186;28;20030;-64
2021/12/27 03:35:35;;;;;;;14.07;6.72;;;;;;;8.31;100.00;97674.28;5027460;28;20049;-64
2021/12/27 03:38:02;;;;;;;12.75;6.70;;;;;;;8.34;100.00;97670.72;5027240;28;20025;-64
2021/12/27 03:40:28;;;;;;;12.65;5.93;;;;;;;8.30;100.00;97672.59;5026531;28;20032;-64
2021/12/27 03:42:56;;;;;;;10.73;6.13;;;;;;;8.35;100.00;97668.06;5024927;28;20088;-64
2021/12/27 03:45:27;;;;;;;14.80;6.40;;;;;;;8.37;100.00;97668.91;5011179;28;20313;-64
2021/12/27 03:47:52;;;;;;;12.80;6.05;;;;;;;8.32;100.00;97660.28;5027114;28;20028;-64
2021/12/27 03:50:18;;;;;;;11.00;6.22;;;;;;;8.35;100.00;97660.19;5027124;28;20049;-64
2021/12/27 03:52:44;;;;;;;10.27;6.03;;;;;;;8.36;100.00;97656.66;5012676;28;20195;-65
2021/12/27 03:55:11;;;;;;;12.00;6.45;;;;;;;8.34;100.00;97665.47;5011472;28;20025;-65
2021/12/27 03:57:42;;;;;;;10.13;5.97;;;;;;;8.39;100.00;97651.34;5026664;28;20029;-65
2021/12/27 04:02:46;;;;;;;12.73;6.25;;;;;;;8.38;100.00;97654.88;5018160;28;20029;-65
2021/12/27 04:05:12;;;;;;;16.75;6.00;;;;;;;8.35;100.00;97656.69;5007009;28;20042;-64
2021/12/27 04:07:39;;;;;;;11.02;6.05;;;;;;;8.36;100.00;97650.59;5021314;28;20229;-65
2021/12/27 04:10:09;;;;;;;10.95;6.05;;;;;;;8.39;100.00;97651.34;5007121;28;20104;-66
2021/12/27 04:12:35;;;;;;;10.38;6.18;;;;;;;8.39;100.00;97646.09;5006740;28;20093;-66
2021/12/27 04:15:01;;;;;;;10.85;6.15;;;;;;;8.39;100.00;97640.84;5006881;28;20125;-66
2021/12/27 04:17:27;;;;;;;9.38;5.43;;;;;;;8.37;100.00;97647.91;5006753;28;20050;-66
2021/12/27 04:19:52;;;;;;;9.23;5.32;;;;;;;8.36;100.00;97640.09;5006730;28;20065;-66
2021/12/27 04:22:18;;;;;;;10.93;6.07;;;;;;;8.37;100.00;97642.69;5006720;28;20018;-66
2021/12/27 04:24:43;;;;;;;9.73;5.85;;;;;;;8.42;100.00;97656.50;5007007;28;20256;-66
2021/12/27 04:27:09;;;;;;;12.57;5.28;;;;;;;8.40;100.00;97647.84;5006609;28;20018;-66
2021/12/27 04:29:34;;;;;;;9.43;4.95;;;;;;;8.44;100.00;97653.84;5006546;28;20030;-66
2021/12/27 04:32:00;;;;;;;10.48;5.20;;;;;;;8.41;100.00;97644.31;5006434;28;20027;-66
2021/12/27 04:34:25;;;;;;;9.80;5.20;;;;;;;8.42;100.00;97653.03;5006478;28;20314;-66
2021/12/27 04:36:51;;;;;;;9.13;5.40;;;;;;;8.41;100.00;97653.94;5006392;28;20065;-66
2021/12/27 04:39:16;;;;;;;9.15;4.60;;;;;;;8.40;100.00;97653.09;5005924;28;20018;-66
2021/12/27 04:41:42;;;;;;;8.88;5.13;;;;;;;8.43;100.00;97647.75;5006362;28;20019;-66
2021/12/27 04:44:07;;;;;;;9.57;4.93;;;;;;;8.41;100.00;97644.31;5018563;28;20032;-66
2021/12/27 04:46:33;;;;;;;7.57;4.70;;;;;;;8.44;100.00;97638.13;5025981;28;20245;-66
2021/12/27 04:48:58;;;;;;;10.07;4.72;;;;;;;8.44;100.00;97643.34;5025842;28;20276;-66
2021/12/27 04:51:24;;;;;;;8.55;5.05;;;;;;;8.38;100.00;97633.91;5025561;28;20018;-66
2021/12/27 04:53:50;;;;;;;11.02;5.65;;;;;;;8.33;100.00;97646.25;5025611;28;20021;-66
2021/12/27 04:56:16;;;;;;;7.68;4.72;;;;;;;8.38;100.00;97649.63;5025662;28;20334;-66
2021/12/27 04:58:44;;;;;;;9.25;4.93;;;;;;;8.38;100.00;97648.75;5025648;28;20021;-66
2021/12/27 05:01:11;;;;;;;8.88;4.82;;;;;;;8.32;100.00;97639.31;5025151;28;20018;-66
2021/12/27 05:03:36;;;;;;;8.27;4.78;;;;;;;8.38;100.00;97659.25;5025366;28;20305;-66
2021/12/27 05:06:02;;;;;;;8.05;4.93;;;;;;;8.37;100.00;97647.06;5025057;28;20024;-66
2021/12/27 05:08:28;;;;;;;9.68;4.32;;;;;;;8.36;100.00;97654.03;5025055;28;20205;-66
2021/12/27 05:10:53;;;;;;;9.50;4.57;;;;;;;8.35;100.00;97652.34;5024916;28;20040;-66
2021/12/27 05:13:19;;;;;;;7.75;4.25;;;;;;;8.35;100.00;97643.59;5025209;28;20072;-66
2021/12/27 05:15:44;;;;;;;7.50;4.22;;;;;;;8.38;100.00;97643.50;5025463;28;20097;-66
2021/12/27 05:18:10;;;;;;;8.98;4.50;;;;;;;8.34;100.00;97632.28;5025524;28;20018;-66
2021/12/27 05:20:36;;;;;;;8.60;4.18;;;;;;;8.32;100.00;97634.06;5025181;28;20313;-66
2021/12/27 05:23:01;;;;;;;10.90;5.35;;;;;;;8.29;100.00;97634.13;5025215;28;20022;-66
2021/12/27 05:25:26;;;;;;;9.80;4.68;;;;;;;8.30;100.00;97625.41;5024864;28;20352;-66
2021/12/27 05:27:52;;;;;;;7.70;4.55;;;;;;;8.28;100.00;97621.06;5025035;28;20030;-66
2021/12/27 05:30:18;;;;;;;7.60;4.25;;;;;;;8.25;100.00;97629.88;5025032;28;20022;-66
2021/12/27 05:32:44;;;;;;;9.32;4.85;;;;;;;8.22;100.00;97616.84;5024931;28;20021;-66
2021/12/27 05:35:11;;;;;;;6.13;4.00;;;;;;;8.20;100.00;97618.63;5024963;28;20313;-66
2021/12/27 05:37:37;;;;;;;7.68;4.93;;;;;;;8.12;100.00;97620.59;5024933;28;20063;-66
2021/12/27 05:40:08;;;;;;;10.45;4.40;;;;;;;8.12;100.00;97615.34;5024997;28;20400;-66
2021/12/27 05:42:35;;;;;;;6.07;3.92;;;;;;;8.12;100.00;97615.34;5025133;28;20367;-66
2021/12/27 05:45:02;;;;;;;6.60;4.10;;;;;;;8.08;100.00;97607.59;5024846;28;20030;-66
2021/12/27 05:47:27;;;;;;;8.00;4.22;;;;;;;8.08;100.00;97602.38;5024658;28;20037;-66
2021/12/27 05:49:53;;;;;;;8.95;4.60;;;;;;;8.03;100.00;97601.59;5023864;28;20079;-66
2021/12/27 05:52:18;;;;;;;8.38;3.85;;;;;;;8.00;100.00;97605.19;5024592;28;20076;-66
2021/12/27 05:54:44;;;;;;;9.65;3.78;;;;;;;7.99;100.00;97598.22;5024677;28;20221;-66
2021/12/27 05:57:10;;;;;;;7.22;3.78;;;;;;;8.01;100.00;97596.41;5024552;28;20021;-66
2021/12/27 05:59:35;;;;;;;8.02;3.25;;;;;;;7.97;100.00;97589.53;5024549;28;20093;-66
2021/12/27 06:02:01;;;;;;;6.70;4.03;;;;;;;7.94;100.00;97589.59;5024585;28;20217;-66
2021/12/27 06:04:26;;;;;;;5.80;3.28;;;;;;;7.87;100.00;97571.47;5024185;28;20025;-66
2021/12/27 06:06:52;;;;;;;4.82;3.17;;;;;;;7.90;100.00;97574.88;5009627;28;20030;-66
2021/12/27 06:09:17;;;;;;;10.25;4.05;;;;;;;7.88;100.00;97588.91;5004812;28;20340;-66
2021/12/27 06:11:42;;;;;;;6.82;4.25;;;;;;;7.84;100.00;97590.75;5004724;28;20061;-66
2021/12/27 06:14:08;;;;;;;7.72;3.97;;;;;;;7.88;100.00;97588.91;5004702;28;20030;-66
2021/12/27 06:16:34;;;;;;;8.88;5.15;;;;;;;7.82;100.00;97579.44;5004714;28;20043;-66
2021/12/27 06:18:59;;;;;;;7.60;5.03;;;;;;;7.83;100.00;97591.66;5004615;28;20194;-66
2021/12/27 06:21:25;;;;;;;10.55;5.63;;;;;;;7.90;100.00;97587.09;5004625;28;20045;-66
2021/12/27 06:23:50;;;;;;;7.80;4.97;;;;;;;7.88;100.00;97592.38;5005003;28;20021;-66
2021/12/27 06:26:16;;;;;;;8.02;5.10;;;;;;;7.94;100.00;97589.59;5004619;28;20034;-66
2021/12/27 06:28:41;;;;;;;9.13;5.10;;;;;;;7.90;100.00;97587.97;5004576;28;20314;-66
2021/12/27 06:31:06;;;;;;;9.88;5.35;;;;;;;7.86;100.00;97583.72;5004507;28;20244;-66
2021/12/27 06:33:32;;;;;;;8.38;5.00;;;;;;;7.89;100.00;97588.88;5004555;28;20022;-66
2021/12/27 06:35:58;;;;;;;11.07;6.55;;;;;;;7.89;100.00;97585.41;5004476;28;20064;-66
2021/12/27 06:38:24;;;;;;;11.32;5.63;;;;;;;7.88;100.00;97584.53;5004441;28;20029;-66
2021/12/27 06:40:51;;;;;;;8.05;5.10;;;;;;;7.87;100.00;97580.19;5004412;28;20041;-66
2021/12/27 06:43:17;;;;;;;8.85;5.28;;;;;;;7.84;100.00;97569.78;5004395;28;20037;-66
2021/12/27 06:45:43;;;;;;;9.77;4.78;;;;;;;7.82;100.00;97571.56;5004357;28;20030;-66
2021/12/27 06:48:08;;;;;;;7.85;4.95;;;;;;;7.82;100.00;97571.56;5004361;28;20093;-66
2021/12/27 06:50:34;;;;;;;8.25;5.43;;;;;;;7.80;100.00;97570.78;5004357;28;20061;-66
2021/12/27 06:52:59;;;;;;;9.02;4.65;;;;;;;7.83;100.00;97570.69;5004218;28;20030;-66
2021/12/27 06:55:25;;;;;;;8.40;4.30;;;;;;;7.81;100.00;97577.72;5004297;28;20026;-66
2021/12/27 06:57:50;;;;;;;7.40;4.57;;;;;;;7.80;100.00;97576.00;5004313;28;20022;-66
2021/12/27 07:00:16;;;;;;;9.50;4.43;;;;;;;7.81;100.00;97579.47;5004281;28;20073;-66
2021/12/27 07:02:44;;;;;;;7.85;4.80;;;;;;;7.78;100.00;97576.97;5008407;28;20081;-66
2021/12/27 07:05:11;;;;;;;7.03;4.38;;;;;;;7.78;100.00;97583.03;5020238;28;20321;-66
2021/12/27 07:07:37;;;;;;;11.13;5.07;;;;;;;7.74;100.00;97580.53;5027743;28;20213;-66
2021/12/27 07:10:05;;;;;;;8.73;4.45;;;;;;;7.76;100.00;97590.09;5027687;28;20071;-66
2021/12/27 07:12:30;;;;;;;9.60;4.80;;;;;;;7.78;100.00;97588.28;5027554;28;20084;-66
2021/12/27 07:14:56;;;;;;;7.40;4.70;;;;;;;7.78;100.00;97583.03;5027449;28;20065;-66
2021/12/27 07:17:21;;;;;;;7.85;4.05;;;;;;;7.78;100.00;97588.28;5027340;28;20021;-66
2021/12/27 07:19:47;;;;;;;10.52;4.78;;;;;;;7.80;100.00;97583.88;5027488;28;20033;-66
2021/12/27 07:22:12;;;;;;;9.60;4.32;;;;;;;7.86;100.00;97588.97;5027470;28;20366;-66
2021/12/27 07:24:38;;;;;;;6.65;3.90;;;;;;;7.86;100.00;97585.47;5027164;28;20049;-66
2021/12/27 07:27:04;;;;;;;7.95;4.40;;;;;;;7.78;100.00;97583.03;5027635;28;20078;-66
2021/12/27 07:29:30;;;;;;;6.95;3.80;;;;;;;7.79;100.00;97584.75;5027264;28;20022;-66
2021/12/27 07:31:55;;;;;;;7.63;4.20;;;;;;;7.77;100.00;97581.31;5027216;28;20033;-66
2021/12/27 07:34:24;;;;;;;7.43;4.47;;;;;;;7.78;100.00;97579.56;5027229;28;20048;-66
2021/12/27 07:36:51;;;;;;;7.68;4.10;;;;;;;7.76;100.00;97579.63;5027159;28;20071;-66
2021/12/27 07:39:17;;;;;;;8.00;4.10;;;;;;;7.74;100.00;97576.16;5027388;28;20037;-66
2021/12/27 07:41:42;;;;;;;8.60;3.88;;;;;;;7.76;100.00;97568.25;5027123;28;20026;-66
2021/12/27 07:44:08;;;;;;;7.03;3.95;;;;;;;7.78;100.00;97559.47;5027052;28;20034;-66
2021/12/27 07:46:35;;;;;;;14.15;4.15;;;;;;;7.77;100.00;97552.50;5027006;28;20216;-66
2021/12/27 07:49:02;;;;;;;8.23;4.60;;;;;;;7.81;100.00;97551.53;5023660;28;20036;-66
2021/12/27 07:51:28;;;;;;;7.35;4.38;;;;;;;7.80;100.00;97539.34;5018305;28;20022;-66
2021/12/27 07:53:53;;;;;;;5.88;3.50;;;;;;;7.83;100.00;97544.50;5020568;28;20034;-66
2021/12/27 07:56:19;;;;;;;8.02;4.70;;;;;;;7.86;100.00;97538.31;5026877;28;20022;-66
2021/12/27 07:58:44;;;;;;;8.82;4.95;;;;;;;7.83;100.00;97534.03;5026763;28;20032;-66
2021/12/27 08:01:10;;;;;;;10.73;5.70;;;;;;;7.81;100.00;97534.94;5026746;28;20045;-66
2021/12/27 08:03:35;;;;;;;6.75;4.38;;;;;;;7.86;100.00;97533.94;5018439;28;20378;-66
2021/12/27 08:06:01;;;;;;;8.65;5.15;;;;;;;7.87;100.00;97534.78;5017336;28;20052;-66
2021/12/27 08:08:26;;;;;;;9.55;5.63;;;;;;;7.93;100.00;97539.88;5015639;28;20026;-66
2021/12/27 08:10:51;;;;;;;8.07;4.68;;;;;;;7.94;100.00;97531.13;5017322;28;20018;-66
2021/12/27 08:13:17;;;;;;;7.45;4.80;;;;;;;7.95;100.00;97533.72;5013675;28;20033;-66
2021/12/27 08:15:42;;;;;;;11.70;4.63;;;;;;;7.91;100.00;97537.28;5020771;28;20101;-66
2021/12/27 08:18:08;;;;;;;9.18;5.40;;;;;;;7.89;100.00;97526.00;5015928;28;20024;-66
2021/12/27 08:20:33;;;;;;;10.77;5.43;;;;;;;7.90;100.00;97522.47;5026292;28;20049;-66
2021/12/27 08:22:59;;;;;;;9.38;5.68;;;;;;;7.94;100.00;97515.41;5026600;28;20021;-66
2021/12/27 08:25:24;;;;;;;11.98;6.10;;;;;;;7.90;100.00;97509.38;5014590;28;20038;-66
2021/12/27 08:27:50;;;;;;;12.27;6.00;;;;;;;7.95;100.00;97507.50;5026491;28;20049;-66
2021/12/27 08:30:15;;;;;;;12.30;7.45;;;;;;;8.04;100.00;97502.00;5026194;28;20216;-65
2021/12/27 08:32:42;;;;;;;13.20;7.00;;;;;;;8.01;100.00;97502.09;5026095;28;20026;-66
2021/12/27 08:35:13;;;;;;;9.43;6.18;;;;;;;8.09;100.00;97497.50;5026200;28;20300;-66
2021/12/27 08:37:39;;;;;;;10.60;6.50;;;;;;;8.04;100.00;97486.28;5024890;28;20383;-66
2021/12/27 08:40:06;;;;;;;9.05;5.38;;;;;;;8.03;100.00;97483.69;5031129;28;20028;-67
2021/12/27 08:42:32;;;;;;;10.02;6.10;;;;;;;7.95;100.00;97486.56;5030253;28;20018;-66
2021/12/27 08:44:57;;;;;;;13.20;5.97;;;;;;;7.98;100.00;97481.19;5026652;28;20022;-66
2021/12/27 08:47:23;;;;;;;12.35;5.68;;;;;;;7.98;100.00;97486.44;5025714;28;20029;-66
2021/12/27 08:49:49;;;;;;;8.18;5.47;;;;;;;8.04;100.00;97488.91;5034217;28;20347;-66
2021/12/27 08:52:14;;;;;;;9.30;5.15;;;;;;;8.08;100.00;97480.06;5034847;28;20217;-66
2021/12/27 08:54:40;;;;;;;9.82;5.35;;;;;;;8.15;100.00;97481.63;5037095;28;20089;-66
2021/12/27 08:57:09;;;;;;;10.45;5.75;;;;;;;8.28;100.00;97480.41;5039654;28;20067;-66
2021/12/27 08:59:35;;;;;;;9.38;5.53;;;;;;;8.37;100.00;97485.38;5038512;28;20022;-66
2021/12/27 09:02:01;;;;;;;8.88;5.25;;;;;;;8.48;100.00;97472.81;5025491;28;20022;-66
2021/12/27 09:04:26;;;;;;;7.50;4.47;;;;;;;8.53;100.00;97476.16;5029742;28;20028;-66
2021/12/27 09:06:51;;;;;;;10.50;5.03;;;;;;;8.58;100.00;97469.00;5022039;28;20070;-66
2021/12/27 09:09:17;;;;;;;8.73;5.45;;;;;;;8.60;100.00;97467.19;5024637;28;20025;-66
2021/12/27 09:11:44;;;;;;;9.70;5.38;;;;;;;8.62;100.00;97465.41;5025198;28;20030;-66
2021/12/27 09:14:10;;;;;;;10.07;4.75;;;;;;;8.73;100.00;97462.44;5022358;28;20032;-66
2021/12/27 09:16:35;;;;;;;12.20;5.72;;;;;;;8.82;100.00;97471.81;5019136;28;20045;-66
2021/12/27 09:19:01;;;;;;;10.60;5.85;;;;;;;9.01;100.00;97480.81;5025209;28;20053;-66
2021/12/27 09:21:27;;;;;;;8.75;5.40;;;;;;;9.32;100.00;97473.66;5028952;28;20052;-66
2021/12/27 09:23:52;;;;;;;11.15;5.72;;;;;;;9.72;99.56;97468.78;5032244;28;20217;-66
2021/12/27 09:26:18;;;;;;;8.55;4.93;;;;;;;10.30;96.68;97457.94;5025168;28;20335;-66
2021/12/27 09:28:44;;;;;;;9.23;5.07;;;;;;;10.62;94.37;97460.22;5025048;28;20053;-66
2021/12/27 09:31:09;;;;;;;9.70;4.22;;;;;;;10.98;91.62;97457.97;5025220;28;20025;-66
2021/12/27 09:33:35;;;;;;;6.45;4.05;;;;;;;10.68;90.63;97446.84;5013179;28;20033;-66
2021/12/27 09:36:00;;;;;;;7.43;4.25;;;;;;;11.00;90.37;97454.34;5015074;28;20022;-66
2021/12/27 09:38:26;;;;;;;8.85;4.60;;;;;;;11.05;89.34;97449.75;5013758;28;20234;-66
2021/12/27 09:40:51;;;;;;;9.10;4.20;;;;;;;11.01;89.93;97440.25;5023119;28;20029;-66
2021/12/27 09:43:17;;;;;;;7.80;4.38;;;;;;;10.76;89.20;97447.41;5023779;28;20029;-66
2021/12/27 09:45:42;;;;;;;8.60;5.38;;;;;;;10.24;91.32;97537.06;5024116;28;20021;-66
2021/12/27 09:48:08;;;;;;;7.70;4.03;;;;;;;10.01;93.53;97502.81;5023947;28;20030;-66
2021/12/27 09:50:41;;;;;;;13.00;4.15;;;;;;;9.82;94.93;97513.09;5023903;28;20080;-66
2021/12/27 09:53:08;;;;;;;6.00;3.90;;;;;;;9.89;95.28;97497.97;5023679;28;20034;-66
2021/12/27 09:55:34;;;;;;;7.13;3.97;;;;;;;9.80;95.15;97466.75;5024056;28;20329;-66
2021/12/27 09:58:00;;;;;;;9.40;4.50;;;;;;;9.72;95.68;97455.66;5027818;28;20021;-66
2021/12/27 10:00:26;;;;;;;9.98;4.90;;;;;;;9.62;96.37;97446.38;5026716;28;20273;-66
2021/12/27 10:02:54;;;;;;;6.80;3.85;;;;;;;9.67;97.09;97444.44;5024321;28;20036;-66
2021/12/27 10:05:21;;;;;;;9.00;4.60;;;;;;;9.59;96.60;97430.72;5025276;28;20217;-66
2021/12/27 10:07:47;;;;;;;5.30;3.25;;;;;;;9.63;96.30;97432.34;5024424;28;20026;-66
2021/12/27 10:10:13;;;;;;;8.13;3.55;;;;;;;9.68;96.07;97430.41;5026919;28;20312;-66
2021/12/27 10:12:39;;;;;;;6.45;3.75;;;;;;;9.59;95.55;97425.47;5028020;28;20088;-66
2021/12/27 10:15:08;;;;;;;8.63;4.25;;;;;;;9.60;96.41;97421.94;5024471;28;20059;-66
2021/12/27 10:17:36;;;;;;;8.25;4.43;;;;;;;9.75;95.94;97413.53;5024056;28;20045;-66
2021/12/27 10:20:16;;;;;;;8.70;4.03;;;;;;;9.79;95.75;97418.63;5023665;28;20089;-66
2021/12/27 10:22:48;;;;;;;6.32;3.35;;;;;;;9.80;95.93;97419.44;5020082;28;20060;-66
2021/12/27 10:25:19;;;;;;;10.00;3.80;;;;;;;9.66;96.04;97416.47;5023571;28;20141;-66
2021/12/27 10:27:46;;;;;;;7.75;4.03;;;;;;;9.64;95.97;97418.28;5023864;28;20021;-66
2021/12/27 10:30:21;;;;;;;6.32;3.50;;;;;;;9.56;96.42;97415.06;5023308;28;20018;-66
2021/12/27 10:33:16;;;;;;;6.28;3.55;;;;;;;9.66;96.79;97426.97;5023219;28;20213;-66
2021/12/27 10:35:49;;;;;;;7.05;3.47;;;;;;;9.66;96.71;97421.72;5025720;28;20176;-66
2021/12/27 10:38:16;;;;;;;11.10;3.90;;;;;;;9.67;96.59;97418.16;5021179;28;20025;-66
2021/12/27 10:40:56;;;;;;;5.35;3.13;;;;;;;9.66;96.65;97419.97;5032924;28;20018;-66
2021/12/27 10:43:44;;;;;;;5.15;2.95;;;;;;;9.72;96.19;97417.13;5028261;28;20045;-66
2021/12/27 10:46:13;;;;;;;4.97;3.03;;;;;;;9.69;96.27;97416.34;5023499;28;20022;-66
2021/12/27 10:48:46;;;;;;;6.10;3.00;;;;;;;9.76;95.60;97407.34;5025910;28;20262;-66
2021/12/27 10:51:12;;;;;;;6.47;3.25;;;;;;;9.81;95.54;97416.78;5023770;28;20033;-66
2021/12/27 10:53:54;;;;;;;6.43;3.60;;;;;;;9.86;96.01;97413.97;5023346;28;20084;-66
2021/12/27 10:56:23;;;;;;;6.45;3.38;;;;;;;9.94;95.99;97412.78;5023606;28;20320;-66
2021/12/27 10:58:57;;;;;;;5.82;2.88;;;;;;;9.90;95.14;97410.34;5023591;28;20371;-65
2021/12/27 11:01:26;;;;;;;5.78;3.03;;;;;;;9.82;95.86;97412.38;5023651;28;20025;-66
2021/12/27 11:04:01;;;;;;;7.25;3.17;;;;;;;9.98;95.61;97410.91;5023566;28;20018;-66
2021/12/27 11:06:29;;;;;;;4.82;2.60;;;;;;;9.92;95.01;97408.50;5023730;28;20321;-66
2021/12/27 11:08:56;;;;;;;4.88;2.90;;;;;;;9.95;94.95;97414.53;5023295;28;20026;-66
2021/12/27 11:11:24;;;;;;;6.30;2.95;;;;;;;10.14;94.76;97409.47;5023408;28;20030;-66
2021/12/27 11:13:54;;;;;;;6.97;2.95;;;;;;;10.33;94.26;97416.63;5023477;28;20093;-66
2021/12/27 11:16:20;;;;;;;5.20;2.83;;;;;;;10.30;93.63;97405.34;5023300;28;20356;-66
2021/12/27 11:18:46;;;;;;;6.65;2.83;;;;;;;10.35;93.23;97398.16;5019728;28;20025;-66
2021/12/27 11:21:18;;;;;;;5.28;3.30;;;;;;;10.45;93.19;97399.53;5015035;28;20377;-66
2021/12/27 11:23:47;;;;;;;7.82;3.70;;;;;;;10.41;93.15;97397.94;5005433;28;20036;-66
2021/12/27 11:26:15;;;;;;;7.03;3.42;;;;;;;10.48;91.76;97392.34;5016643;28;20085;-66
2021/12/27 11:28:43;;;;;;;5.82;3.00;;;;;;;10.48;92.42;97375.72;5022891;28;20144;-66
2021/12/27 11:31:17;;;;;;;6.78;3.55;;;;;;;10.43;93.17;97385.56;5018855;28;20022;-66
2021/12/27 11:33:55;;;;;;;4.90;3.00;;;;;;;10.46;92.83;97395.97;5013506;28;20336;-66